Time;durP1;ratioP1;P1;durP2;ratioP2;P2;SDS_P1;SDS_P2;PMS_P1;PMS_P2;Temp;Humidity;BMP_temperature;BMP_pressure;BME280_temperature;BME280_humidity;BME280_pressure;Samples;Min_cycle;Max_cycle;Signal;HPM_P1;HPM_P2
2023/05/31 00:00:06;;;;;;;4.03;2.55;;;;;;;18.58;57.44;100073.16;6191649;28;20052;-72
2023/05/31 00:03:07;;;;;;;4.25;2.60;;;;;;;18.51;58.11;100078.16;6191457;28;20184;-71
2023/05/31 00:06:10;;;;;;;4.82;2.03;;;;;;;18.39;58.13;100072.22;6191995;28;20050;-72
2023/05/31 00:09:10;;;;;;;5.07;2.30;;;;;;;18.45;58.61;100076.09;6189192;28;20099;-71
2023/05/31 00:12:11;;;;;;;3.20;2.33;;;;;;;18.41;58.39;100075.56;6186334;28;20054;-72
2023/05/31 00:15:12;;;;;;;4.63;2.40;;;;;;;18.41;58.76;100075.56;6185490;28;20111;-71
2023/05/31 00:18:12;;;;;;;5.47;2.60;;;;;;;18.29;58.29;100060.88;6169252;28;20065;-71
2023/05/31 00:21:13;;;;;;;4.50;2.35;;;;;;;18.32;58.54;100071.13;6177701;28;20047;-72
2023/05/31 00:24:15;;;;;;;4.78;2.28;;;;;;;18.26;59.24;100064.63;6178665;28;20075;-71
2023/05/31 00:27:16;;;;;;;2.63;2.10;;;;;;;18.23;58.91;100064.06;6193330;28;20062;-72
2023/05/31 00:30:16;;;;;;;4.70;2.53;;;;;;;18.25;59.77;100065.59;6196498;28;20099;-72
2023/05/31 00:33:17;;;;;;;5.20;2.10;;;;;;;18.21;58.86;100066.84;6177997;28;20054;-72
2023/05/31 00:36:18;;;;;;;4.68;1.98;;;;;;;18.18;58.98;100066.28;6180362;28;20054;-73
2023/05/31 00:39:19;;;;;;;14.23;2.08;;;;;;;18.20;59.80;100073.13;6196017;28;20050;-72
2023/05/31 00:42:19;;;;;;;8.85;1.98;;;;;;;18.19;60.14;100065.34;6198121;28;20054;-71
2023/05/31 00:45:20;;;;;;;6.05;2.40;;;;;;;18.12;59.87;100062.44;6200577;28;20058;-71
2023/05/31 00:48:21;;;;;;;3.35;2.00;;;;;;;18.04;59.74;100080.78;6196765;28;20119;-72
2023/05/31 00:51:23;;;;;;;7.72;1.73;;;;;;;17.98;60.53;100084.00;6196707;28;20118;-72
2023/05/31 00:54:24;;;;;;;2.75;1.90;;;;;;;17.93;60.66;100087.03;6197806;28;20103;-72
2023/05/31 00:57:25;;;;;;;4.22;1.60;;;;;;;17.84;60.56;100080.78;6197888;28;20050;-72
2023/05/31 01:00:27;;;;;;;4.80;2.05;;;;;;;17.91;60.90;100078.41;6196559;28;20137;-72
2023/05/31 01:03:28;;;;;;;;;;;;;;;17.90;60.44;100085.50;6197798;28;20135;-72
2023/05/31 01:06:32;;;;;;;6.97;1.90;;;;;;;17.82;60.81;100074.78;6196446;28;19926;-71
2023/05/31 01:09:34;;;;;;;2.17;1.60;;;;;;;17.89;61.00;100085.66;6196543;28;20089;-71
2023/05/31 01:12:42;;;;;;;3.35;1.75;;;;;;;17.82;60.41;100089.78;6197536;28;20069;-70
2023/05/31 01:15:56;;;;;;;2.63;1.83;;;;;;;17.83;60.96;100083.56;6196291;28;20485;-71
2023/05/31 01:19:06;;;;;;;4.32;2.08;;;;;;;17.76;60.86;100093.81;6197646;28;20050;-70
2023/05/31 01:22:23;;;;;;;8.48;1.90;;;;;;;17.79;60.93;100092.69;6197266;28;20535;-70
2023/05/31 01:25:30;;;;;;;4.20;2.22;;;;;;;17.82;61.21;100090.63;6197369;28;20097;-70
2023/05/31 01:28:36;;;;;;;3.47;1.90;;;;;;;17.73;62.45;100089.66;6197512;28;20161;-72
2023/05/31 01:31:37;;;;;;;3.53;1.90;;;;;;;17.73;61.66;100094.94;6197076;28;20054;-71
2023/05/31 01:34:38;;;;;;;2.67;1.75;;;;;;;17.80;60.92;100099.66;6196188;28;20118;-71
2023/05/31 01:37:39;;;;;;;5.82;2.17;;;;;;;17.70;61.15;100095.19;6196438;28;20058;-71
2023/05/31 01:40:40;;;;;;;3.15;1.95;;;;;;;17.67;61.61;100092.03;6196906;28;20133;-71
2023/05/31 01:43:44;;;;;;;4.88;2.08;;;;;;;17.69;61.60;100088.28;6197016;28;20065;-70
2023/05/31 01:46:45;;;;;;;3.28;1.90;;;;;;;17.69;62.18;100090.09;6196833;28;20094;-70
2023/05/31 01:49:48;;;;;;;6.72;2.00;;;;;;;17.54;62.31;100092.28;6196002;28;20050;-70
2023/05/31 01:52:49;;;;;;;4.07;2.05;;;;;;;17.60;61.99;100081.16;6194943;28;20050;-71
2023/05/31 01:55:52;;;;;;;3.42;1.80;;;;;;;17.52;62.83;100079.25;6196894;28;20123;-71
2023/05/31 01:58:54;;;;;;;2.92;1.75;;;;;;;17.45;63.70;100082.56;6196719;28;20058;-71
2023/05/31 02:01:55;;;;;;;5.38;1.88;;;;;;;17.45;63.18;100086.03;6195390;28;20061;-71
2023/05/31 02:05:11;;;;;;;3.70;1.88;;;;;;;17.32;63.52;100080.19;6196612;28;20054;-71
2023/05/31 02:08:11;;;;;;;3.28;2.00;;;;;;;17.36;63.05;100080.72;6195951;28;20054;-70
2023/05/31 02:11:14;;;;;;;2.70;1.70;;;;;;;17.29;63.82;100081.28;6194339;28;20058;-71
2023/05/31 02:14:15;;;;;;;4.05;2.33;;;;;;;17.26;63.81;100086.84;6195559;28;20111;-71
2023/05/31 02:17:23;;;;;;;2.72;1.77;;;;;;;17.21;63.46;100089.03;6195959;28;20054;-71
2023/05/31 02:20:23;;;;;;;5.53;2.17;;;;;;;17.24;63.82;100091.41;6196487;28;20129;-72
2023/05/31 02:23:26;;;;;;;2.13;1.50;;;;;;;17.18;64.22;100078.78;6196169;28;20061;-71
2023/05/31 02:26:27;;;;;;;4.47;1.85;;;;;;;17.23;63.79;100088.91;6196200;28;20389;-71
2023/05/31 02:29:28;;;;;;;3.85;1.75;;;;;;;17.24;64.19;100093.22;6194866;28;20055;-71
2023/05/31 02:32:28;;;;;;;2.38;1.88;;;;;;;17.24;63.29;100094.03;6196062;28;20057;-70
2023/05/31 02:35:29;;;;;;;2.50;1.80;;;;;;;17.23;65.11;100092.38;6196081;28;20131;-70
2023/05/31 02:38:30;;;;;;;2.70;1.92;;;;;;;17.12;64.17;100087.22;6194767;28;20046;-70
2023/05/31 02:41:31;;;;;;;3.63;1.60;;;;;;;17.14;64.23;100089.72;6195966;28;20054;-71
2023/05/31 02:44:31;;;;;;;2.35;1.83;;;;;;;17.14;63.77;100082.63;6195692;28;20050;-71
2023/05/31 02:47:33;;;;;;;3.63;1.50;;;;;;;17.08;64.08;100086.66;6194284;28;20144;-71
2023/05/31 02:50:33;;;;;;;2.50;1.67;;;;;;;17.11;64.26;100091.66;6194224;28;20517;-71
2023/05/31 02:53:34;;;;;;;2.65;1.73;;;;;;;17.14;64.74;100097.63;6194535;28;20284;-71
2023/05/31 02:56:35;;;;;;;2.65;1.58;;;;;;;17.07;65.16;100097.31;6195640;28;20069;-71
2023/05/31 02:59:36;;;;;;;3.28;1.77;;;;;;;17.12;64.60;100097.75;6195638;28;20050;-71
2023/05/31 03:02:42;;;;;;;4.30;1.80;;;;;;;17.06;64.61;100098.31;6193531;28;20426;-71
2023/05/31 03:05:45;;;;;;;2.63;1.65;;;;;;;17.12;64.09;100101.22;6194834;28;20502;-71
2023/05/31 03:08:48;;;;;;;5.40;1.80;;;;;;;17.04;64.30;100108.13;6195306;28;20486;-70
2023/05/31 03:11:49;;;;;;;3.28;2.00;;;;;;;17.11;65.06;100109.25;6194021;28;20139;-70
2023/05/31 03:14:49;;;;;;;2.65;1.58;;;;;;;17.07;64.99;100108.72;6194158;28;20061;-71
2023/05/31 03:17:50;;;;;;;3.95;1.60;;;;;;;17.06;64.63;100114.94;6193091;28;20463;-71
2023/05/31 03:20:51;;;;;;;12.35;2.28;;;;;;;16.96;65.30;100116.72;6194000;28;20145;-71
2023/05/31 03:23:51;;;;;;;3.67;2.17;;;;;;;16.99;64.57;100113.00;6193795;28;20126;-70
2023/05/31 03:26:52;;;;;;;6.45;1.98;;;;;;;16.93;65.27;100114.34;6193955;28;20090;-70
2023/05/31 03:29:53;;;;;;;5.50;1.95;;;;;;;17.02;64.39;100112.72;6193625;28;20545;-70
2023/05/31 03:32:53;;;;;;;2.58;1.60;;;;;;;17.13;64.43;100120.50;6193493;28;20542;-70
2023/05/31 03:35:56;;;;;;;8.32;2.00;;;;;;;17.10;63.71;100124.25;6278179;28;20055;-70
2023/05/31 03:38:57;;;;;;;8.50;1.83;;;;;;;17.13;63.90;100131.06;6194808;28;20355;-71
2023/05/31 03:42:01;;;;;;;6.28;1.88;;;;;;;17.17;63.35;100127.19;6194850;28;20061;-70
2023/05/31 03:45:02;;;;;;;2.90;1.60;;;;;;;17.21;63.02;100131.22;6194610;28;20471;-71
2023/05/31 03:48:03;;;;;;;4.50;1.55;;;;;;;17.15;63.65;100129.13;6193320;28;20066;-71
2023/05/31 03:51:03;;;;;;;2.03;1.40;;;;;;;17.12;63.43;100134.66;6193414;28;20058;-71
2023/05/31 03:54:04;;;;;;;5.25;2.28;;;;;;;17.16;63.05;100130.81;6193545;28;20061;-71
2023/05/31 03:57:06;;;;;;;5.38;1.88;;;;;;;17.19;64.13;100134.97;6192970;28;20050;-70
2023/05/31 04:00:10;;;;;;;3.75;1.73;;;;;;;17.08;63.92;100142.00;6194351;28;20047;-71
2023/05/31 04:03:14;;;;;;;4.25;1.92;;;;;;;17.08;64.44;100135.91;6192389;28;20058;-71
2023/05/31 04:06:15;;;;;;;1.98;1.60;;;;;;;17.16;63.36;100143.16;6193876;28;20054;-70
2023/05/31 04:09:18;;;;;;;4.90;1.63;;;;;;;17.08;62.76;100136.72;6192471;28;20046;-70
2023/05/31 04:12:19;;;;;;;2.78;1.65;;;;;;;17.20;63.09;100145.38;6194157;28;20050;-71
2023/05/31 04:15:20;;;;;;;4.90;1.83;;;;;;;17.27;62.81;100149.13;6193094;28;20569;-70
2023/05/31 04:18:20;;;;;;;2.85;1.40;;;;;;;17.25;62.26;100148.44;6193066;28;20088;-71
2023/05/31 04:21:24;;;;;;;3.10;1.88;;;;;;;17.26;63.49;100150.13;6194071;28;20065;-71
2023/05/31 04:24:25;;;;;;;3.30;1.73;;;;;;;17.24;62.20;100153.88;6193842;28;20058;-71
2023/05/31 04:27:27;;;;;;;5.63;1.60;;;;;;;17.24;63.03;100161.78;6192908;28;20612;-71
2023/05/31 04:30:28;;;;;;;6.05;1.80;;;;;;;17.30;63.03;100158.59;6193472;28;20061;-70
2023/05/31 04:33:29;;;;;;;4.35;1.75;;;;;;;17.32;62.16;100162.75;6194094;28;20051;-71
2023/05/31 04:36:32;;;;;;;1.42;1.17;;;;;;;17.31;62.07;100162.91;6275360;28;20090;-70
2023/05/31 04:39:34;;;;;;;2.92;1.70;;;;;;;17.50;63.04;100167.38;6171450;28;20115;-70
2023/05/31 04:42:38;;;;;;;2.13;1.63;;;;;;;17.38;62.03;100171.94;6192369;28;20065;-70
2023/05/31 04:45:41;;;;;;;4.93;1.80;;;;;;;17.53;61.20;100175.03;6191945;28;20046;-70
2023/05/31 04:48:43;;;;;;;4.78;1.60;;;;;;;17.59;61.93;100182.41;6291697;28;20050;-70
2023/05/31 04:51:43;;;;;;;4.97;1.85;;;;;;;17.54;61.86;100166.13;6189908;28;20176;-70
2023/05/31 04:54:44;;;;;;;4.32;1.80;;;;;;;17.59;60.84;100179.78;6187924;28;20047;-70
2023/05/31 04:57:45;;;;;;;5.25;1.60;;;;;;;17.76;60.74;100169.53;6221910;28;20108;-70
2023/05/31 05:00:46;;;;;;;6.97;1.40;;;;;;;17.75;61.43;100192.44;6173290;28;20061;-71
2023/05/31 05:03:46;;;;;;;4.50;2.03;;;;;;;17.75;60.29;100187.16;6192058;28;20054;-70
2023/05/31 05:06:49;;;;;;;3.17;1.63;;;;;;;17.72;60.59;100184.78;6190096;28;20408;-70
2023/05/31 05:09:50;;;;;;;8.95;1.90;;;;;;;17.81;60.22;100191.03;6189239;28;20050;-70
2023/05/31 05:12:51;;;;;;;1.83;1.33;;;;;;;17.89;59.93;100196.50;6190824;28;20084;-71
2023/05/31 05:15:54;;;;;;;3.95;1.50;;;;;;;18.00;59.92;100204.31;6179168;28;20055;-71
2023/05/31 05:19:02;;;;;;;10.68;1.83;;;;;;;17.92;60.10;100204.16;6172233;28;20515;-70
2023/05/31 05:22:16;;;;;;;6.40;2.15;;;;;;;17.93;59.50;100195.25;6193990;28;20208;-70
2023/05/31 05:25:42;;;;;;;2.88;1.80;;;;;;;17.82;59.33;100198.00;6188517;28;20056;-71
2023/05/31 05:28:58;;;;;;;5.25;1.92;;;;;;;17.88;59.65;100200.13;6198851;28;20058;-72
2023/05/31 05:32:16;;;;;;;3.05;1.60;;;;;;;18.00;59.55;100206.13;6248832;28;20109;-71
2023/05/31 05:35:25;;;;;;;6.18;1.58;;;;;;;18.13;59.14;100199.56;6170478;28;20093;-71
2023/05/31 05:38:50;;;;;;;2.90;1.58;;;;;;;18.24;58.48;100200.41;6172897;28;20529;-71
2023/05/31 05:42:07;;;;;;;3.15;1.80;;;;;;;18.08;58.58;100208.91;6194671;28;20062;-71
2023/05/31 05:45:17;;;;;;;2.90;1.50;;;;;;;17.94;58.57;100207.50;6194523;28;20089;-71
2023/05/31 05:48:35;;;;;;;2.53;1.40;;;;;;;18.12;58.70;100208.50;6192798;28;20440;-71
2023/05/31 05:52:04;;;;;;;3.40;1.52;;;;;;;18.26;59.05;100211.66;6195700;28;20050;-72
2023/05/31 05:55:20;;;;;;;6.85;2.08;;;;;;;18.28;58.66;100213.22;6195535;28;20107;-71
2023/05/31 05:58:31;;;;;;;5.18;1.90;;;;;;;18.33;59.22;100218.91;6195543;28;20046;-72
2023/05/31 06:01:41;;;;;;;3.15;1.65;;;;;;;18.49;58.73;100222.78;6194456;28;20065;-72
2023/05/31 06:04:57;;;;;;;2.78;1.70;;;;;;;18.39;57.48;100222.81;6194667;28;20124;-72
2023/05/31 06:08:18;;;;;;;4.35;1.85;;;;;;;18.54;58.26;100217.91;6194232;28;20095;-71
2023/05/31 06:11:35;;;;;;;2.42;1.60;;;;;;;18.60;56.87;100230.56;6181484;28;20093;-71
2023/05/31 06:14:52;;;;;;;2.75;1.25;;;;;;;18.64;56.11;100221.38;6194559;28;20054;-71
2023/05/31 06:17:57;;;;;;;2.22;1.60;;;;;;;18.81;56.05;100221.66;6194721;28;20487;-71
2023/05/31 06:21:20;;;;;;;4.15;1.52;;;;;;;18.91;55.83;100228.59;6192022;28;20414;-71
2023/05/31 06:24:42;;;;;;;2.50;1.30;;;;;;;18.99;55.19;100230.50;6183787;28;20058;-71
2023/05/31 06:28:04;;;;;;;3.70;1.60;;;;;;;19.08;54.59;100224.34;6208849;28;20413;-71
2023/05/31 06:31:15;;;;;;;2.17;1.48;;;;;;;19.22;55.56;100224.88;6190679;28;20525;-72
2023/05/31 06:34:31;;;;;;;9.57;2.10;;;;;;;19.24;54.46;100222.91;6174298;28;20061;-72
2023/05/31 06:37:47;;;;;;;4.88;1.50;;;;;;;19.48;53.59;100228.50;6183030;28;20061;-71
2023/05/31 06:41:09;;;;;;;4.03;1.70;;;;;;;19.56;53.73;100230.44;6194857;28;20050;-71
2023/05/31 06:44:28;;;;;;;2.90;1.40;;;;;;;19.63;54.42;100235.97;6193987;28;20054;-73
2023/05/31 06:47:41;;;;;;;4.05;1.80;;;;;;;19.70;55.07;100227.28;6194025;28;20062;-72
2023/05/31 06:51:10;;;;;;;5.75;1.75;;;;;;;19.73;54.05;100229.66;6193055;28;20391;-72
2023/05/31 06:54:29;;;;;;;2.38;1.50;;;;;;;19.99;55.05;100236.88;6185962;28;20069;-72
2023/05/31 06:57:47;;;;;;;3.30;1.65;;;;;;;20.18;52.27;100243.00;6196225;28;20582;-72
2023/05/31 07:01:05;;;;;;;4.45;1.75;;;;;;;20.28;52.06;100243.75;6192873;28;20058;-72
2023/05/31 07:04:27;;;;;;;6.00;1.92;;;;;;;20.82;51.99;100241.09;6194154;28;20107;-72
2023/05/31 07:07:41;;;;;;;4.70;1.60;;;;;;;21.03;52.56;100240.72;6191227;28;20050;-71
2023/05/31 07:10:54;;;;;;;3.40;1.50;;;;;;;21.16;51.00;100245.59;6193599;28;20460;-71
2023/05/31 07:14:15;;;;;;;5.10;1.67;;;;;;;21.48;49.95;100237.00;6186936;28;20437;-71
2023/05/31 07:17:31;;;;;;;3.50;1.50;;;;;;;21.71;48.49;100238.06;6191703;28;20057;-73
2023/05/31 07:20:36;;;;;;;3.80;1.73;;;;;;;21.93;49.23;100236.63;6190143;28;20337;-71
2023/05/31 07:23:57;;;;;;;4.15;1.83;;;;;;;22.31;49.03;100242.34;6188268;28;20058;-71
2023/05/31 07:27:19;;;;;;;3.20;1.58;;;;;;;22.44;49.12;100235.72;6192057;28;20425;-72
2023/05/31 07:30:38;;;;;;;5.93;1.83;;;;;;;22.55;46.67;100240.72;6193755;28;20051;-71
2023/05/31 07:33:55;;;;;;;4.40;1.67;;;;;;;22.78;46.43;100248.00;6193504;28;20133;-72
2023/05/31 07:37:10;;;;;;;4.70;1.60;;;;;;;22.47;46.23;100246.84;6192118;28;20057;-71
2023/05/31 07:40:26;;;;;;;3.53;1.70;;;;;;;22.63;45.61;100242.50;6192898;28;20125;-72
2023/05/31 07:43:44;;;;;;;4.47;1.55;;;;;;;22.56;45.50;100239.69;6227886;28;20054;-72
2023/05/31 07:47:00;;;;;;;3.75;1.60;;;;;;;22.67;46.20;100227.88;6190314;28;20084;-72
2023/05/31 07:50:11;;;;;;;3.13;1.73;;;;;;;22.49;46.05;100223.59;6191047;28;20081;-72
2023/05/31 07:53:25;;;;;;;3.20;1.70;;;;;;;22.73;45.10;100225.41;6191955;28;20593;-72
2023/05/31 07:56:43;;;;;;;6.25;1.60;;;;;;;22.72;45.25;100226.38;6192886;28;20312;-73
2023/05/31 08:00:02;;;;;;;4.18;1.60;;;;;;;23.20;45.03;100229.13;6193104;28;20422;-72
2023/05/31 08:03:27;;;;;;;9.52;1.77;;;;;;;23.26;44.87;100228.44;6192406;28;20073;-73
2023/05/31 08:06:45;;;;;;;4.85;1.63;;;;;;;23.38;46.82;100228.91;6193504;28;20131;-72
2023/05/31 08:10:07;;;;;;;3.55;1.73;;;;;;;23.53;44.44;100234.31;6192272;28;20046;-73
2023/05/31 08:13:24;;;;;;;2.63;1.38;;;;;;;23.61;44.16;100233.47;6183709;28;20052;-73
2023/05/31 08:16:30;;;;;;;3.22;1.70;;;;;;;23.68;44.66;100229.94;6190917;28;21134;-73
2023/05/31 08:19:41;;;;;;;3.58;1.60;;;;;;;23.72;44.26;100236.56;6192009;28;20184;-73
2023/05/31 08:22:48;;;;;;;5.72;1.73;;;;;;;23.77;43.51;100233.41;6191809;28;20095;-72
2023/05/31 08:26:07;;;;;;;6.95;1.98;;;;;;;24.33;43.77;100233.19;6190585;28;20054;-72
2023/05/31 08:29:22;;;;;;;2.95;1.60;;;;;;;24.32;43.03;100232.38;6195641;28;20432;-72
2023/05/31 08:32:47;;;;;;;9.25;2.10;;;;;;;24.37;43.24;100229.16;6190034;28;20062;-72
2023/05/31 08:36:01;;;;;;;6.60;1.90;;;;;;;24.26;44.88;100224.28;6191424;28;20460;-72
2023/05/31 08:39:19;;;;;;;3.53;1.45;;;;;;;24.63;42.73;100236.00;6192808;28;20053;-73
2023/05/31 08:42:27;;;;;;;6.00;2.13;;;;;;;24.65;41.66;100234.78;6192525;28;20129;-71
2023/05/31 08:45:34;;;;;;;5.10;1.80;;;;;;;24.81;43.59;100240.97;6191486;28;20500;-72
2023/05/31 08:48:59;;;;;;;3.30;1.95;;;;;;;25.29;40.29;100239.66;6194181;28;20061;-72
2023/05/31 08:52:17;;;;;;;4.30;1.75;;;;;;;25.56;40.57;100231.97;6197073;28;20178;-73
2023/05/31 08:55:27;;;;;;;7.45;2.28;;;;;;;25.83;39.67;100245.66;6195556;28;20076;-72
2023/05/31 08:58:54;;;;;;;4.43;1.80;;;;;;;25.49;38.78;100234.56;6195790;28;20078;-72
2023/05/31 09:01:57;;;;;;;3.50;2.08;;;;;;;25.42;39.17;100236.31;6196484;28;20595;-72
2023/05/31 09:05:00;;;;;;;4.03;2.30;;;;;;;25.47;40.74;100233.94;6196591;28;20050;-71
2023/05/31 09:08:02;;;;;;;3.00;1.90;;;;;;;25.88;41.99;100229.84;6196285;28;20054;-72
2023/05/31 09:11:03;;;;;;;;;;;;;;;26.04;39.83;100229.66;6195842;28;20054;-72
2023/05/31 09:14:04;;;;;;;6.93;2.03;;;;;;;26.13;39.53;100222.34;6195329;28;20020;-72
2023/05/31 09:17:05;;;;;;;5.82;1.67;;;;;;;25.92;38.36;100229.34;6196348;28;20050;-71
2023/05/31 09:20:07;;;;;;;6.40;1.80;;;;;;;26.22;38.43;100226.53;6195083;28;20536;-71
2023/05/31 09:23:09;;;;;;;3.63;1.70;;;;;;;26.28;37.94;100228.44;6196510;28;20276;-71
2023/05/31 09:26:10;;;;;;;4.65;1.67;;;;;;;26.66;40.83;100222.81;6194943;28;20446;-71
2023/05/31 09:29:10;;;;;;;7.97;2.10;;;;;;;27.11;38.39;100225.16;6196272;28;20053;-71
2023/05/31 09:32:11;;;;;;;3.87;1.80;;;;;;;26.71;37.81;100225.75;6195032;28;20107;-71
2023/05/31 09:35:17;;;;;;;4.43;1.70;;;;;;;27.06;40.21;100222.25;6195944;28;20050;-71
2023/05/31 09:38:17;;;;;;;3.08;2.00;;;;;;;27.10;39.90;100218.97;6194848;28;20490;-71
2023/05/31 09:41:20;;;;;;;6.95;1.90;;;;;;;27.69;39.19;100220.28;6195899;28;20077;-69
2023/05/31 09:44:26;;;;;;;2.63;1.77;;;;;;;27.48;36.35;100213.19;6194844;28;20132;-72
2023/05/31 09:47:27;;;;;;;5.60;2.00;;;;;;;27.96;39.04;100215.00;6194223;28;20149;-69
2023/05/31 09:50:28;;;;;;;6.72;2.50;;;;;;;28.01;36.82;100204.50;6194701;28;20046;-69
2023/05/31 09:53:30;;;;;;;2.90;2.05;;;;;;;28.28;37.57;100218.75;6195574;28;20099;-70
2023/05/31 09:56:36;;;;;;;4.43;1.90;;;;;;;28.31;35.35;100217.53;6195795;28;20051;-69
2023/05/31 09:59:40;;;;;;;5.10;1.85;;;;;;;27.51;35.84;100204.78;6193539;28;20053;-70
2023/05/31 10:02:48;;;;;;;3.33;2.20;;;;;;;27.76;36.09;100214.09;6195756;28;20060;-70
2023/05/31 10:05:49;;;;;;;3.55;2.10;;;;;;;27.77;38.58;100203.19;6194213;28;20057;-70
2023/05/31 10:08:50;;;;;;;4.28;2.03;;;;;;;27.87;37.05;100209.00;6194037;28;20129;-71
2023/05/31 10:11:56;;;;;;;4.90;2.13;;;;;;;28.24;35.44;100212.16;6195300;28;20387;-74
2023/05/31 10:15:02;;;;;;;4.20;2.03;;;;;;;28.10;37.56;100200.59;6194342;28;20061;-72
2023/05/31 10:18:14;;;;;;;3.72;2.03;;;;;;;28.38;37.98;100207.63;6194072;28;20050;-72
2023/05/31 10:21:22;;;;;;;3.70;1.92;;;;;;;28.21;35.44;100206.38;6195375;28;20069;-72
2023/05/31 10:24:40;;;;;;;4.28;1.80;;;;;;;28.53;36.41;100199.38;6193965;28;20086;-72
2023/05/31 10:27:44;;;;;;;5.90;1.88;;;;;;;28.14;36.66;100203.69;6194133;28;20065;-71
2023/05/31 10:30:49;;;;;;;4.32;2.20;;;;;;;27.66;35.74;100198.44;6193829;28;20088;-71
2023/05/31 10:33:54;;;;;;;2.72;1.75;;;;;;;27.45;36.41;100192.19;6194917;28;20525;-71
2023/05/31 10:36:55;;;;;;;4.10;1.92;;;;;;;28.02;37.27;100190.06;6194772;28;20058;-71
2023/05/31 10:40:30;;;;;;;3.60;1.80;;;;;;;28.09;35.38;100195.44;6190711;28;20080;-71
2023/05/31 10:43:39;;;;;;;6.53;2.10;;;;;;;28.29;34.56;100190.91;6182785;28;20058;-71
2023/05/31 10:46:41;;;;;;;3.10;1.90;;;;;;;28.20;37.29;100186.78;6170010;28;20054;-71
2023/05/31 10:49:44;;;;;;;5.40;2.08;;;;;;;28.46;37.17;100185.13;6170295;28;20410;-71
2023/05/31 10:53:07;;;;;;;3.58;1.75;;;;;;;28.59;36.04;100185.13;6170560;28;20502;-71
2023/05/31 10:56:10;;;;;;;4.70;2.10;;;;;;;29.01;36.42;100187.53;6170136;28;20141;-71
2023/05/31 10:59:18;;;;;;;2.63;1.70;;;;;;;29.36;36.75;100188.03;6169393;28;20074;-71
2023/05/31 11:02:19;;;;;;;4.72;2.25;;;;;;;28.92;34.03;100185.06;6170230;28;20443;-71
2023/05/31 11:05:26;;;;;;;2.97;2.05;;;;;;;28.69;33.97;100184.72;6169459;28;20047;-71
2023/05/31 11:08:27;;;;;;;5.03;1.67;;;;;;;29.11;36.91;100174.50;6169725;28;20105;-71
2023/05/31 11:11:46;;;;;;;8.73;2.00;;;;;;;28.99;33.87;100173.47;6169168;28;20053;-71
2023/05/31 11:14:59;;;;;;;4.35;2.30;;;;;;;28.67;36.95;100170.69;6170006;28;20138;-71
2023/05/31 11:18:00;;;;;;;7.55;1.95;;;;;;;28.60;35.27;100159.97;6169990;28;20441;-71
2023/05/31 11:21:04;;;;;;;4.00;1.80;;;;;;;28.92;34.84;100163.56;6169037;28;20104;-71
2023/05/31 11:24:05;;;;;;;4.07;1.90;;;;;;;28.90;34.84;100160.28;6169843;28;20058;-72
2023/05/31 11:27:11;;;;;;;2.65;1.92;;;;;;;29.18;36.35;100164.56;6168658;28;20063;-71
2023/05/31 11:30:16;;;;;;;2.58;1.80;;;;;;;29.46;37.03;100156.16;6168510;28;20054;-71
2023/05/31 11:33:18;;;;;;;4.15;1.65;;;;;;;28.83;33.60;100158.66;6169764;28;20065;-71
2023/05/31 11:36:20;;;;;;;3.13;2.00;;;;;;;28.89;35.48;100158.66;6168741;28;20050;-71
2023/05/31 11:39:20;;;;;;;3.47;1.70;;;;;;;29.10;34.13;100146.81;6168323;28;20487;-71
2023/05/31 11:42:22;;;;;;;3.40;1.80;;;;;;;29.19;33.86;100146.56;6169653;28;20101;-72
2023/05/31 11:45:26;;;;;;;6.72;2.38;;;;;;;28.67;35.19;100143.84;6168561;28;20054;-71
2023/05/31 11:48:37;;;;;;;6.57;2.00;;;;;;;29.17;36.71;100136.03;6167943;28;20051;-71
2023/05/31 11:51:42;;;;;;;3.00;1.83;;;;;;;28.72;33.14;100147.53;6168446;28;20050;-70
2023/05/31 11:54:48;;;;;;;3.00;1.83;;;;;;;29.54;34.13;100138.94;6168192;28;20085;-72
2023/05/31 11:57:51;;;;;;;2.70;1.88;;;;;;;29.91;34.63;100137.28;6169305;28;20059;-72
2023/05/31 12:01:01;;;;;;;3.08;1.80;;;;;;;29.86;34.40;100133.63;6168032;28;20378;-71
2023/05/31 12:04:02;;;;;;;3.55;1.88;;;;;;;29.88;33.13;100132.34;6169185;28;20522;-71
2023/05/31 12:07:04;;;;;;;;;;;;;;;29.32;33.25;100133.91;6169588;28;20061;-72
2023/05/31 12:10:06;;;;;;;3.45;1.70;;;;;;;29.32;32.96;100127.69;6168996;28;19945;-71
2023/05/31 12:13:07;;;;;;;5.28;1.80;;;;;;;28.97;35.04;100124.53;6167974;28;20094;-72
2023/05/31 12:16:07;;;;;;;2.72;1.90;;;;;;;29.05;35.90;100121.59;6169320;28;20055;-71
2023/05/31 12:19:12;;;;;;;2.38;2.00;;;;;;;29.07;34.06;100120.34;6169031;28;20445;-71
2023/05/31 12:22:13;;;;;;;3.75;1.95;;;;;;;29.26;34.47;100126.72;6168455;28;20064;-72
2023/05/31 12:25:13;;;;;;;2.92;1.77;;;;;;;29.14;32.99;100128.44;6173290;28;20051;-70
2023/05/31 12:28:24;;;;;;;4.35;1.83;;;;;;;29.31;33.02;100131.44;6172200;28;20050;-71
2023/05/31 12:31:25;;;;;;;6.45;2.13;;;;;;;28.56;33.44;100123.00;6173087;28;20410;-71
2023/05/31 12:34:26;;;;;;;2.90;1.73;;;;;;;28.64;34.28;100114.72;6171919;28;20086;-71
2023/05/31 12:37:27;;;;;;;4.07;1.88;;;;;;;28.96;33.96;100110.28;6171920;28;20061;-71
2023/05/31 12:40:28;;;;;;;2.00;1.58;;;;;;;29.15;33.23;100108.56;6172923;28;20407;-71
2023/05/31 12:43:30;;;;;;;3.88;1.73;;;;;;;29.01;33.54;100104.25;6173150;28;20078;-71
2023/05/31 12:46:42;;;;;;;5.30;1.70;;;;;;;28.67;33.76;100109.75;6171551;28;20149;-71
2023/05/31 12:49:43;;;;;;;3.78;1.60;;;;;;;28.98;34.30;100104.69;6172745;28;20043;-72
2023/05/31 12:52:55;;;;;;;2.53;1.70;;;;;;;28.77;33.87;100109.31;6172622;28;20452;-71
2023/05/31 12:55:55;;;;;;;4.30;1.90;;;;;;;29.23;35.02;100113.69;6173004;28;20103;-71
2023/05/31 12:58:56;;;;;;;5.53;1.92;;;;;;;29.21;31.99;100101.53;6172534;28;20043;-72
2023/05/31 13:02:00;;;;;;;1.95;1.40;;;;;;;29.87;33.79;100097.59;6171698;28;20073;-71
2023/05/31 13:05:01;;;;;;;4.80;1.92;;;;;;;29.49;32.22;100099.28;6171327;28;20050;-72
2023/05/31 13:08:02;;;;;;;3.40;1.75;;;;;;;28.84;31.65;100093.19;6172340;28;20062;-71
2023/05/31 13:11:02;;;;;;;2.40;1.65;;;;;;;29.03;32.87;100089.56;6171125;28;20084;-71
2023/05/31 13:14:05;;;;;;;3.63;2.00;;;;;;;29.32;33.07;100090.91;6171146;28;20055;-71
2023/05/31 13:17:06;;;;;;;3.63;1.90;;;;;;;28.96;32.19;100080.75;6171218;28;20612;-71
2023/05/31 13:20:07;;;;;;;2.67;1.90;;;;;;;28.17;33.63;100087.97;6170915;28;20043;-72
2023/05/31 13:23:08;;;;;;;7.65;1.92;;;;;;;28.83;33.96;100081.63;6170912;28;20137;-71
2023/05/31 13:26:09;;;;;;;7.20;2.15;;;;;;;29.28;33.75;100080.78;6171056;28;20491;-72
2023/05/31 13:29:10;;;;;;;5.85;1.90;;;;;;;28.86;33.16;100077.69;6172217;28;20058;-71
2023/05/31 13:32:10;;;;;;;2.13;1.60;;;;;;;29.02;31.69;100084.44;6170695;28;20054;-71
2023/05/31 13:35:12;;;;;;;3.83;1.80;;;;;;;29.11;32.02;100080.47;6170962;28;20047;-71
2023/05/31 13:38:13;;;;;;;3.97;2.03;;;;;;;29.09;30.11;100083.34;6170756;28;20051;-71
2023/05/31 13:41:15;;;;;;;2.03;1.70;;;;;;;28.96;32.52;100080.75;6171952;28;20057;-71
2023/05/31 13:44:16;;;;;;;2.03;1.50;;;;;;;29.08;31.86;100078.22;6170580;28;20457;-71
2023/05/31 13:47:17;;;;;;;4.43;1.55;;;;;;;29.28;34.29;100084.34;6170296;28;20059;-71
2023/05/31 13:50:17;;;;;;;2.70;1.65;;;;;;;29.36;31.16;100083.22;6170582;28;20088;-71
2023/05/31 13:53:21;;;;;;;3.03;1.63;;;;;;;29.27;31.33;100079.97;6171606;28;20494;-71
2023/05/31 13:56:22;;;;;;;7.70;2.30;;;;;;;29.04;32.64;100077.81;6170488;28;20132;-71
2023/05/31 13:59:23;;;;;;;3.30;1.70;;;;;;;28.96;31.97;100080.75;6170261;28;20043;-71
2023/05/31 14:02:24;;;;;;;4.43;1.63;;;;;;;28.48;33.63;100070.34;6171626;28;20482;-71
2023/05/31 14:05:27;;;;;;;3.78;2.17;;;;;;;28.34;33.35;100074.94;6170418;28;20054;-69
2023/05/31 14:08:28;;;;;;;2.67;1.70;;;;;;;27.88;32.23;100057.84;6170032;28;20406;-71
2023/05/31 14:11:31;;;;;;;2.35;1.63;;;;;;;28.05;33.14;100065.47;6170135;28;20391;-70
2023/05/31 14:14:32;;;;;;;3.22;1.80;;;;;;;27.85;33.28;100066.28;6171267;28;20065;-70
2023/05/31 14:17:33;;;;;;;3.72;1.58;;;;;;;28.12;32.57;100061.75;6171314;28;20054;-72
2023/05/31 14:20:36;;;;;;;1.95;1.50;;;;;;;28.40;34.84;100057.16;6171119;28;20058;-71
2023/05/31 14:23:37;;;;;;;3.13;1.98;;;;;;;28.60;32.86;100060.66;6171187;28;20573;-69
2023/05/31 14:26:38;;;;;;;6.30;2.13;;;;;;;28.43;32.03;100046.81;6169828;28;20057;-71